createdAt,value
2022-12-08T00:00:20.295Z,61.83
2022-12-08T00:01:20.266Z,64.07
2022-12-08T00:02:20.378Z,61.26
2022-12-08T00:03:20.458Z,63.64
2022-12-08T00:04:20.263Z,63.85
2022-12-08T00:05:20.253Z,62.79
2022-12-08T00:06:20.227Z,62.34
2022-12-08T00:07:20.219Z,60.19
2022-12-08T00:08:20.262Z,63.29
2022-12-08T00:09:20.216Z,62.95
2022-12-08T00:10:47.903Z,62.19
2022-12-08T00:11:22.191Z,64.81
2022-12-08T00:12:46.584Z,61.57
2022-12-08T00:13:20.163Z,65.99
2022-12-08T00:14:20.180Z,61.73
2022-12-08T00:15:20.145Z,62.04
2022-12-08T00:16:20.224Z,62.83
2022-12-08T00:17:20.132Z,61.97
2022-12-08T00:18:20.140Z,61.29
2022-12-08T00:19:20.130Z,59.71
2022-12-08T00:20:20.107Z,61.75
2022-12-08T00:21:20.100Z,60.34
2022-12-08T00:22:20.086Z,62.35
2022-12-08T00:23:20.083Z,62.80
2022-12-08T00:24:20.118Z,61.75
2022-12-08T00:25:20.058Z,61.77
2022-12-08T00:26:20.052Z,61.36
2022-12-08T00:27:20.043Z,62.35
2022-12-08T00:28:20.026Z,61.19
2022-12-08T00:29:20.043Z,60.74
2022-12-08T00:30:20.039Z,62.02
2022-12-08T00:31:20.052Z,60.48
2022-12-08T00:32:20.080Z,62.52
2022-12-08T00:33:19.998Z,64.04
2022-12-08T00:34:20.006Z,61.97
2022-12-08T00:35:19.985Z,62.00
2022-12-08T00:36:19.967Z,62.03
2022-12-08T00:37:19.961Z,62.67
2022-12-08T00:38:19.949Z,61.50
2022-12-08T00:39:19.968Z,60.67
2022-12-08T00:40:19.938Z,62.63
2022-12-08T00:41:19.934Z,62.70
2022-12-08T00:42:19.926Z,61.95
2022-12-08T00:43:19.912Z,62.25
2022-12-08T00:44:19.922Z,59.88
2022-12-08T00:45:19.900Z,63.29
2022-12-08T00:46:19.922Z,63.22
2022-12-08T00:47:24.489Z,62.61
2022-12-08T00:48:20.873Z,60.77
2022-12-08T00:49:19.883Z,61.67
2022-12-08T00:50:19.853Z,62.06
2022-12-08T00:51:20.566Z,63.62
2022-12-08T00:52:19.833Z,64.39
2022-12-08T00:53:19.823Z,61.57
2022-12-08T00:54:19.838Z,61.53
2022-12-08T00:55:19.808Z,62.44
2022-12-08T00:56:19.795Z,61.87
2022-12-08T00:57:19.791Z,62.44
2022-12-08T00:58:19.798Z,61.43
2022-12-08T00:59:19.799Z,63.44
2022-12-08T01:00:19.772Z,62.01
2022-12-08T01:01:19.950Z,65.77
2022-12-08T01:02:19.757Z,62.37
2022-12-08T01:03:19.834Z,63.96
2022-12-08T01:04:19.760Z,63.84
2022-12-08T01:05:19.736Z,62.42
2022-12-08T01:06:19.725Z,61.55
2022-12-08T01:07:19.709Z,63.22
2022-12-08T01:08:19.734Z,62.35
2022-12-08T01:09:19.719Z,62.03
2022-12-08T01:10:19.684Z,60.93
2022-12-08T01:11:19.672Z,64.10
2022-12-08T01:12:19.660Z,63.11
2022-12-08T01:13:19.660Z,61.05
2022-12-08T01:14:19.674Z,62.53
2022-12-08T01:15:19.643Z,61.48
2022-12-08T01:16:19.679Z,62.03
2022-12-08T01:17:19.630Z,60.84
2022-12-08T01:18:19.621Z,62.19
2022-12-08T01:19:19.631Z,61.60
2022-12-08T01:20:19.593Z,61.29
2022-12-08T01:21:19.600Z,60.90
2022-12-08T01:22:19.585Z,62.16
2022-12-08T01:23:19.588Z,61.92
2022-12-08T01:24:19.587Z,61.35
2022-12-08T01:25:19.570Z,61.75
2022-12-08T01:26:19.561Z,62.89
2022-12-08T01:27:19.568Z,62.41
2022-12-08T01:28:19.525Z,63.54
2022-12-08T01:29:19.548Z,62.43
2022-12-08T01:30:19.519Z,64.29
2022-12-08T01:31:19.589Z,63.71
2022-12-08T01:32:19.507Z,64.55
2022-12-08T01:33:19.499Z,63.21
2022-12-08T01:34:19.509Z,62.10
2022-12-08T01:35:19.488Z,64.14
2022-12-08T01:36:19.465Z,61.76
2022-12-08T01:37:19.470Z,64.31
2022-12-08T01:38:19.459Z,63.25
2022-12-08T01:39:19.469Z,63.04
2022-12-08T01:40:19.442Z,62.18
2022-12-08T01:41:19.427Z,63.16
2022-12-08T01:42:19.426Z,61.45
2022-12-08T01:43:19.417Z,62.87
2022-12-08T01:44:19.413Z,62.00
2022-12-08T01:45:19.414Z,63.38
2022-12-08T01:46:19.517Z,62.28
2022-12-08T01:47:19.388Z,63.57
2022-12-08T01:48:19.465Z,62.49
2022-12-08T01:49:19.416Z,62.16
2022-12-08T01:50:19.370Z,62.16
2022-12-08T01:51:19.352Z,63.98
2022-12-08T01:52:19.327Z,62.49
2022-12-08T01:53:19.332Z,63.59
2022-12-08T01:54:19.343Z,61.97
2022-12-08T01:55:19.320Z,62.83
2022-12-08T01:56:19.306Z,63.31
2022-12-08T01:57:19.305Z,62.93
2022-12-08T01:58:19.297Z,63.64
2022-12-08T01:59:19.305Z,61.92
2022-12-08T02:00:19.272Z,62.72
2022-12-08T02:01:19.342Z,63.34
2022-12-08T02:02:19.454Z,63.26
2022-12-08T02:03:19.250Z,64.33
2022-12-08T02:04:19.280Z,63.64
2022-12-08T02:05:19.243Z,63.47
2022-12-08T02:06:19.226Z,61.88
2022-12-08T02:07:19.223Z,63.34
2022-12-08T02:08:19.290Z,61.57
2022-12-08T02:09:19.226Z,63.41
2022-12-08T02:10:19.201Z,62.43
2022-12-08T02:11:19.188Z,63.74
2022-12-08T02:12:19.182Z,60.82
2022-12-08T02:13:19.179Z,62.60
2022-12-08T02:14:19.188Z,63.51
2022-12-08T02:15:19.160Z,62.00
2022-12-08T02:16:19.186Z,62.78
2022-12-08T02:17:19.150Z,62.37
2022-12-08T02:18:19.144Z,62.69
2022-12-08T02:19:34.534Z,63.17
2022-12-08T02:20:21.127Z,60.53
2022-12-08T02:21:19.115Z,61.68
2022-12-08T02:22:19.111Z,61.66
2022-12-08T02:23:19.090Z,62.67
2022-12-08T02:24:19.101Z,63.27
2022-12-08T02:25:19.080Z,58.62
2022-12-08T02:26:19.078Z,62.92
2022-12-08T02:27:19.078Z,62.55
2022-12-08T02:28:19.062Z,63.64
2022-12-08T02:29:19.076Z,62.50
2022-12-08T02:30:19.049Z,62.65
2022-12-08T02:31:19.112Z,62.94
2022-12-08T02:32:19.019Z,64.17
2022-12-08T02:33:19.025Z,62.69
2022-12-08T02:34:19.028Z,62.34
2022-12-08T02:35:19.001Z,64.02
2022-12-08T02:36:18.989Z,64.51
2022-12-08T02:37:18.986Z,64.05
2022-12-08T02:38:18.976Z,64.24
2022-12-08T02:39:18.985Z,65.54
2022-12-08T02:40:18.949Z,61.78
2022-12-08T02:41:18.947Z,64.13
2022-12-08T02:42:18.943Z,64.40
2022-12-08T02:43:18.936Z,62.29
2022-12-08T02:44:18.947Z,65.56
2022-12-08T02:45:18.922Z,64.43
2022-12-08T02:46:18.981Z,64.42
2022-12-08T02:47:18.913Z,66.15
2022-12-08T02:48:18.885Z,65.18
2022-12-08T02:49:18.906Z,62.47
2022-12-08T02:50:18.879Z,62.17
2022-12-08T02:51:18.884Z,60.42
2022-12-08T02:52:18.852Z,62.74
2022-12-08T02:53:19.857Z,63.37
2022-12-08T02:54:18.867Z,63.89
2022-12-08T02:55:18.837Z,63.94
2022-12-08T02:56:18.824Z,62.62
2022-12-08T02:57:18.817Z,64.36
2022-12-08T02:58:18.811Z,64.95
2022-12-08T02:59:18.832Z,62.04
2022-12-08T03:00:18.794Z,62.68
2022-12-08T03:01:18.852Z,61.24
2022-12-08T03:02:18.826Z,63.90
2022-12-08T03:03:18.778Z,64.79
2022-12-08T03:04:18.782Z,63.92
2022-12-08T03:05:18.756Z,64.64
2022-12-08T03:06:18.748Z,63.98
2022-12-08T03:07:18.762Z,61.77
2022-12-08T03:08:18.785Z,59.64
2022-12-08T03:09:18.751Z,62.75
2022-12-08T03:10:18.727Z,64.39
2022-12-08T03:11:18.796Z,62.10
2022-12-08T03:12:18.696Z,62.14
2022-12-08T03:13:18.693Z,66.21
2022-12-08T03:14:19.705Z,63.23
2022-12-08T03:15:18.673Z,64.57
2022-12-08T03:16:18.794Z,64.84
2022-12-08T03:17:18.655Z,62.11
2022-12-08T03:18:18.658Z,62.91
2022-12-08T03:19:18.648Z,65.17
2022-12-08T03:20:18.655Z,63.72
2022-12-08T03:21:18.631Z,62.83
2022-12-08T03:22:18.620Z,62.84
2022-12-08T03:23:18.623Z,63.60
2022-12-08T03:24:18.603Z,62.31
2022-12-08T03:25:18.605Z,61.30
2022-12-08T03:26:18.592Z,62.87
2022-12-08T03:27:18.574Z,65.05
2022-12-08T03:28:18.572Z,64.21
2022-12-08T03:29:18.579Z,63.65
2022-12-08T03:30:18.572Z,63.44
2022-12-08T03:31:18.606Z,60.11
2022-12-08T03:32:18.536Z,62.73
2022-12-08T03:33:18.535Z,63.40
2022-12-08T03:34:18.531Z,63.76
2022-12-08T03:35:18.529Z,64.00
2022-12-08T03:36:18.506Z,62.73
2022-12-08T03:37:18.493Z,63.29
2022-12-08T03:38:18.499Z,63.19
2022-12-08T03:39:18.477Z,64.78
2022-12-08T03:40:18.502Z,63.31
2022-12-08T03:41:18.479Z,64.82
2022-12-08T03:42:18.459Z,63.51
2022-12-08T03:43:18.453Z,62.64
2022-12-08T03:44:18.446Z,65.42
2022-12-08T03:45:18.464Z,64.31
2022-12-08T03:46:18.485Z,62.49
2022-12-08T03:47:18.411Z,64.29
2022-12-08T03:48:18.412Z,65.08
2022-12-08T03:49:18.402Z,65.01
2022-12-08T03:50:18.414Z,64.78
2022-12-08T03:51:18.392Z,62.85
2022-12-08T03:52:18.382Z,64.51
2022-12-08T03:53:18.372Z,62.46
2022-12-08T03:54:18.362Z,64.07
2022-12-08T03:55:18.358Z,65.48
2022-12-08T03:56:18.346Z,65.60
2022-12-08T03:57:18.344Z,66.84
2022-12-08T03:58:18.359Z,64.79
2022-12-08T03:59:18.323Z,66.76
2022-12-08T04:00:18.364Z,66.19
2022-12-08T04:01:18.385Z,65.25
2022-12-08T04:02:18.397Z,64.78
2022-12-08T04:03:18.327Z,65.18
2022-12-08T04:04:18.277Z,65.15
2022-12-08T04:05:18.293Z,64.49
2022-12-08T04:06:18.269Z,64.63
2022-12-08T04:07:18.247Z,65.48
2022-12-08T04:08:18.324Z,65.35
2022-12-08T04:09:18.262Z,66.26
2022-12-08T04:10:18.249Z,64.92
2022-12-08T04:11:18.220Z,66.15
2022-12-08T04:12:18.208Z,66.65
2022-12-08T04:13:18.204Z,66.20
2022-12-08T04:14:18.190Z,65.46
2022-12-08T04:15:18.208Z,66.25
2022-12-08T04:16:18.252Z,65.75
2022-12-08T04:17:18.178Z,65.21
2022-12-08T04:18:18.165Z,65.89
2022-12-08T04:19:18.167Z,67.71
2022-12-08T04:20:18.166Z,67.45
2022-12-08T04:21:18.139Z,65.50
2022-12-08T04:22:18.132Z,66.62
2022-12-08T04:23:18.120Z,66.73
2022-12-08T04:24:18.115Z,64.90
2022-12-08T04:25:18.225Z,66.14
2022-12-08T04:26:18.091Z,66.56
2022-12-08T04:27:18.087Z,66.02
2022-12-08T04:28:18.068Z,65.20
2022-12-08T04:29:18.084Z,66.94
2022-12-08T04:30:18.095Z,67.62
2022-12-08T04:31:18.075Z,66.22
2022-12-08T04:32:18.044Z,67.12
2022-12-08T04:33:18.041Z,66.73
2022-12-08T04:34:18.032Z,66.42
2022-12-08T04:35:18.041Z,67.58
2022-12-08T04:36:18.013Z,65.51
2022-12-08T04:37:18.004Z,64.97
2022-12-08T04:38:17.996Z,66.19
2022-12-08T04:39:17.985Z,64.11
2022-12-08T04:40:17.990Z,67.64
2022-12-08T04:41:17.966Z,67.28
2022-12-08T04:42:17.968Z,65.37
2022-12-08T04:43:17.961Z,67.31
2022-12-08T04:44:17.945Z,65.65
2022-12-08T04:45:17.955Z,65.95
2022-12-08T04:46:17.957Z,66.58
2022-12-08T04:47:17.990Z,65.62
2022-12-08T04:48:17.908Z,67.05
2022-12-08T04:49:17.895Z,65.52
2022-12-08T04:50:17.921Z,65.87
2022-12-08T04:51:17.888Z,65.79
2022-12-08T04:52:17.868Z,65.96
2022-12-08T04:53:17.868Z,66.55
2022-12-08T04:54:17.855Z,65.60
2022-12-08T04:55:17.866Z,65.88
2022-12-08T04:56:17.841Z,63.60
2022-12-08T04:57:17.829Z,65.67
2022-12-08T04:58:17.821Z,64.95
2022-12-08T04:59:17.813Z,64.98
2022-12-08T05:00:17.817Z,64.55
2022-12-08T05:01:17.853Z,65.78
2022-12-08T05:02:17.884Z,67.53
2022-12-08T05:03:17.776Z,65.34
2022-12-08T05:04:17.755Z,64.98
2022-12-08T05:05:17.803Z,65.95
2022-12-08T05:06:17.759Z,67.05
2022-12-08T05:07:17.741Z,65.16
2022-12-08T05:08:17.756Z,67.27
2022-12-08T05:09:17.730Z,67.05
2022-12-08T05:10:17.738Z,64.09
2022-12-08T05:11:17.716Z,65.35
2022-12-08T05:12:17.702Z,65.67
2022-12-08T05:13:17.705Z,65.77
2022-12-08T05:14:17.696Z,65.32
2022-12-08T05:15:17.710Z,64.69
2022-12-08T05:16:17.783Z,65.48
2022-12-08T05:17:17.669Z,65.93
2022-12-08T05:18:17.656Z,66.22
2022-12-08T05:19:17.668Z,67.62
2022-12-08T05:20:17.655Z,67.26
2022-12-08T05:21:17.630Z,65.46
2022-12-08T05:22:17.623Z,66.27
2022-12-08T05:23:17.613Z,66.33
2022-12-08T05:24:17.610Z,65.78
2022-12-08T05:25:17.618Z,68.45
2022-12-08T05:26:17.583Z,66.54
2022-12-08T05:27:17.579Z,66.08
2022-12-08T05:28:40.751Z,67.58
2022-12-08T05:29:19.582Z,65.34
2022-12-08T05:30:17.577Z,66.77
2022-12-08T05:31:17.581Z,66.54
2022-12-08T05:32:17.532Z,67.49
2022-12-08T05:33:17.533Z,66.67
2022-12-08T05:34:17.527Z,67.07
2022-12-08T05:35:17.536Z,66.93
2022-12-08T05:36:17.516Z,66.97
2022-12-08T05:37:17.527Z,67.64
2022-12-08T05:38:17.501Z,68.11
2022-12-08T05:39:17.478Z,67.05
2022-12-08T05:40:17.498Z,67.87
2022-12-08T05:41:17.471Z,67.93
2022-12-08T05:42:23.163Z,68.63
2022-12-08T05:43:19.453Z,66.85
2022-12-08T05:44:17.447Z,67.30
2022-12-08T05:45:17.461Z,68.48
2022-12-08T05:46:17.518Z,67.86
2022-12-08T05:47:17.425Z,68.51
2022-12-08T05:48:17.402Z,68.85
2022-12-08T05:49:17.410Z,67.78
2022-12-08T05:50:17.426Z,68.08
2022-12-08T05:51:17.394Z,68.14
2022-12-08T05:52:17.371Z,68.49
2022-12-08T05:53:17.383Z,66.09
2022-12-08T05:54:17.369Z,68.13
2022-12-08T05:55:17.383Z,67.84
2022-12-08T05:56:17.356Z,66.75
2022-12-08T05:57:17.343Z,67.71
2022-12-08T05:58:17.330Z,67.83
2022-12-08T05:59:17.329Z,66.00
2022-12-08T06:00:17.325Z,66.88
2022-12-08T06:01:17.313Z,68.06
2022-12-08T06:02:17.492Z,67.04
2022-12-08T06:03:17.371Z,65.81
2022-12-08T06:04:17.278Z,67.73
2022-12-08T06:05:17.297Z,65.94
2022-12-08T06:06:17.269Z,67.07
2022-12-08T06:07:17.263Z,65.35
2022-12-08T06:08:17.344Z,66.35
2022-12-08T06:09:17.253Z,67.84
2022-12-08T06:10:17.258Z,67.09
2022-12-08T06:11:17.234Z,67.38
2022-12-08T06:12:17.242Z,66.75
2022-12-08T06:13:17.218Z,65.65
2022-12-08T06:14:17.220Z,66.46
2022-12-08T06:15:17.213Z,67.18
2022-12-08T06:16:17.213Z,66.12
2022-12-08T06:17:17.172Z,65.94
2022-12-08T06:18:17.169Z,67.87
2022-12-08T06:19:17.163Z,67.31
2022-12-08T06:20:17.180Z,67.79
2022-12-08T06:21:17.146Z,67.05
2022-12-08T06:22:17.138Z,67.38
2022-12-08T06:23:17.129Z,66.71
2022-12-08T06:24:17.125Z,68.68
2022-12-08T06:25:17.127Z,67.46
2022-12-08T06:26:17.105Z,68.22
2022-12-08T06:27:17.097Z,67.72
2022-12-08T06:28:17.099Z,67.87
2022-12-08T06:29:17.078Z,68.17
2022-12-08T06:30:17.092Z,68.08
2022-12-08T06:31:17.228Z,67.56
2022-12-08T06:32:17.141Z,67.65
2022-12-08T06:33:17.054Z,67.29
2022-12-08T06:34:17.052Z,67.94
2022-12-08T06:35:17.045Z,68.09
2022-12-08T06:36:17.024Z,68.38
2022-12-08T06:37:17.025Z,68.25
2022-12-08T06:38:17.007Z,67.66
2022-12-08T06:39:16.986Z,68.27
2022-12-08T06:40:17.013Z,67.51
2022-12-08T06:41:16.981Z,67.42
2022-12-08T06:42:16.969Z,68.06
2022-12-08T06:43:16.963Z,67.51
2022-12-08T06:44:16.967Z,68.57
2022-12-08T06:45:16.963Z,68.23
2022-12-08T06:46:17.087Z,66.98
2022-12-08T06:47:17.839Z,67.49
2022-12-08T06:50:58.134Z,67.05
2022-12-08T06:51:58.083Z,67.30
2022-12-08T06:53:04.770Z,67.83
2022-12-08T06:53:59.067Z,68.11
2022-12-08T06:54:58.056Z,67.94
2022-12-08T06:55:59.644Z,68.39
2022-12-08T06:56:58.074Z,67.58
2022-12-08T06:57:58.060Z,66.51
2022-12-08T06:58:58.029Z,68.18
2022-12-08T06:59:58.011Z,68.70
2022-12-08T07:00:58.069Z,67.28
2022-12-08T07:01:58.091Z,67.15
2022-12-08T07:02:58.041Z,66.71
2022-12-08T07:03:57.974Z,67.68
2022-12-08T07:04:57.966Z,67.82
2022-12-08T07:06:03.477Z,69.20
2022-12-08T07:06:58.952Z,68.25
2022-12-08T07:07:57.967Z,67.90
2022-12-08T07:08:59.054Z,66.60
2022-12-08T07:09:59.061Z,66.62
2022-12-08T07:10:59.054Z,67.73
2022-12-08T07:11:59.036Z,66.61
2022-12-08T07:12:59.023Z,67.42
2022-12-08T07:13:59.009Z,67.61
2022-12-08T07:14:59.007Z,67.41
2022-12-08T07:15:59.008Z,67.48
2022-12-08T07:16:59.057Z,68.22
2022-12-08T07:18:00.212Z,68.34
2022-12-08T07:18:58.987Z,68.00
2022-12-08T07:19:58.977Z,67.88
2022-12-08T07:20:58.966Z,68.12
2022-12-08T07:21:58.954Z,67.93
2022-12-08T07:22:58.932Z,68.30
2022-12-08T07:23:58.913Z,69.04
2022-12-08T07:24:58.923Z,68.25
2022-12-08T07:25:58.920Z,68.49
2022-12-08T07:26:58.887Z,68.96
2022-12-08T07:27:58.907Z,67.83
2022-12-08T07:28:58.887Z,68.25
2022-12-08T07:29:58.856Z,67.57
2022-12-08T07:30:58.915Z,67.50
2022-12-08T07:31:58.844Z,67.11
2022-12-08T07:32:59.869Z,67.44
2022-12-08T07:33:58.824Z,68.08
2022-12-08T07:34:58.823Z,66.75
2022-12-08T07:35:58.828Z,66.98
2022-12-08T07:36:58.809Z,67.59
2022-12-08T07:37:58.798Z,67.73
2022-12-08T07:38:58.810Z,66.84
2022-12-08T07:39:58.786Z,66.96
2022-12-08T07:40:58.781Z,67.27
2022-12-08T07:41:58.781Z,67.73
2022-12-08T07:42:58.774Z,67.00
2022-12-08T07:43:58.758Z,68.92
2022-12-08T07:44:58.754Z,68.71
2022-12-08T07:45:58.792Z,68.21
2022-12-08T07:46:58.735Z,67.85
2022-12-08T07:47:58.724Z,67.67
2022-12-08T07:48:58.701Z,67.75
2022-12-08T07:49:58.692Z,67.12
2022-12-08T07:50:58.705Z,67.48
2022-12-08T07:51:58.685Z,67.64
2022-12-08T07:52:58.668Z,67.25
2022-12-08T07:53:58.646Z,67.18
2022-12-08T07:54:58.666Z,67.52
2022-12-08T07:55:58.648Z,66.97
2022-12-08T07:56:58.637Z,67.51
2022-12-08T07:57:58.619Z,66.40
2022-12-08T07:58:58.605Z,68.62
2022-12-08T07:59:58.608Z,67.17
2022-12-08T08:00:58.827Z,67.68
2022-12-08T08:02:22.399Z,66.23
2022-12-08T08:03:00.643Z,66.94
2022-12-08T08:03:58.580Z,67.97
2022-12-08T08:04:58.620Z,67.24
2022-12-08T08:05:58.559Z,67.58
2022-12-08T08:06:58.535Z,67.73
2022-12-08T08:07:58.649Z,67.90
2022-12-08T08:08:58.528Z,68.58
2022-12-08T08:09:58.496Z,67.85
2022-12-08T08:10:58.523Z,68.25
2022-12-08T08:12:28.991Z,67.98
2022-12-08T08:13:00.480Z,66.59
2022-12-08T08:13:58.500Z,67.84
2022-12-08T08:14:58.464Z,68.12
2022-12-08T08:15:58.571Z,68.01
2022-12-08T08:16:58.634Z,66.93
2022-12-08T08:17:58.440Z,67.22
2022-12-08T08:18:58.478Z,67.45
2022-12-08T08:19:58.443Z,66.17
2022-12-08T08:21:06.615Z,68.16
2022-12-08T08:21:59.411Z,66.39
2022-12-08T08:22:58.473Z,65.70
2022-12-08T08:23:58.407Z,66.50
2022-12-08T08:24:58.373Z,68.47
2022-12-08T08:25:58.379Z,67.16
2022-12-08T08:26:58.379Z,67.54
2022-12-08T08:27:58.345Z,68.09
2022-12-08T08:28:58.342Z,67.32
2022-12-08T08:29:58.332Z,66.14
2022-12-08T08:30:58.364Z,68.85
2022-12-08T08:31:58.339Z,67.92
2022-12-08T08:32:58.346Z,67.83
2022-12-08T08:33:58.289Z,66.69
2022-12-08T08:34:58.282Z,66.71
2022-12-08T08:35:58.288Z,67.71
2022-12-08T08:36:58.357Z,67.67
2022-12-08T08:37:58.283Z,66.94
2022-12-08T08:38:58.292Z,66.62
2022-12-08T08:39:58.234Z,67.09
2022-12-08T08:40:58.259Z,66.60
2022-12-08T08:41:58.210Z,68.04
2022-12-08T08:42:58.206Z,68.35
2022-12-08T08:43:58.243Z,67.73
2022-12-08T08:44:58.213Z,67.32
2022-12-08T08:45:58.236Z,66.66
2022-12-08T08:46:58.224Z,66.12
2022-12-08T08:47:58.157Z,64.92
2022-12-08T08:48:58.139Z,65.62
2022-12-08T08:49:58.142Z,66.70
2022-12-08T08:50:58.147Z,66.92
2022-12-08T08:51:58.116Z,66.00
2022-12-08T08:52:58.111Z,66.05
2022-12-08T08:53:58.127Z,66.49
2022-12-08T08:54:58.122Z,68.19
2022-12-08T08:55:58.096Z,67.76
2022-12-08T08:56:58.087Z,65.79
2022-12-08T08:57:58.082Z,65.89
2022-12-08T08:58:58.050Z,65.81
2022-12-08T08:59:58.037Z,66.81
2022-12-08T09:00:58.053Z,66.62
2022-12-08T09:01:58.084Z,66.35
2022-12-08T09:02:58.015Z,66.18
2022-12-08T09:03:58.233Z,66.53
2022-12-08T09:04:58.051Z,65.43
2022-12-08T09:05:58.096Z,66.63
2022-12-08T09:06:57.972Z,65.97
2022-12-08T09:07:58.016Z,66.63
2022-12-08T09:08:57.956Z,67.78
2022-12-08T09:10:01.590Z,66.61
2022-12-08T09:10:57.938Z,66.04
2022-12-08T09:11:57.937Z,67.14
2022-12-08T09:12:57.912Z,67.19
2022-12-08T09:13:57.945Z,66.32
2022-12-08T09:14:57.888Z,66.57
2022-12-08T09:15:57.950Z,66.43
2022-12-08T09:16:57.889Z,66.66
2022-12-08T09:17:57.866Z,66.96
2022-12-08T09:18:57.871Z,68.51
2022-12-08T09:19:57.840Z,68.00
2022-12-08T09:20:57.840Z,68.11
2022-12-08T09:21:57.836Z,65.94
2022-12-08T09:22:57.809Z,66.11
2022-12-08T09:23:57.803Z,65.93
2022-12-08T09:24:57.788Z,67.48
2022-12-08T09:25:57.780Z,67.61
2022-12-08T09:26:57.798Z,67.35
2022-12-08T09:27:57.767Z,66.85
2022-12-08T09:28:57.772Z,67.45
2022-12-08T09:29:57.738Z,66.23
2022-12-08T09:30:57.778Z,65.47
2022-12-08T09:31:57.851Z,65.56
2022-12-08T09:32:57.725Z,65.25
2022-12-08T09:33:57.695Z,67.53
2022-12-08T09:34:57.695Z,67.46
2022-12-08T09:35:57.680Z,66.61
2022-12-08T09:36:57.720Z,65.84
2022-12-08T09:37:57.664Z,67.08
2022-12-08T09:38:57.637Z,68.10
2022-12-08T09:39:57.637Z,66.52
2022-12-08T09:40:57.632Z,67.37
2022-12-08T09:41:57.650Z,67.07
2022-12-08T09:42:57.606Z,67.50
2022-12-08T09:43:57.596Z,66.46
2022-12-08T09:44:57.593Z,66.69
2022-12-08T09:45:57.588Z,66.13
2022-12-08T09:46:57.642Z,66.89
2022-12-08T09:47:57.561Z,68.58
2022-12-08T09:48:57.557Z,67.01
2022-12-08T09:49:57.545Z,66.67
2022-12-08T09:50:57.529Z,66.30
2022-12-08T09:51:57.539Z,67.28
2022-12-08T09:52:57.514Z,67.29
2022-12-08T09:53:57.495Z,67.50
2022-12-08T09:54:57.498Z,66.09
2022-12-08T09:55:57.512Z,66.22
2022-12-08T09:56:57.494Z,67.38
2022-12-08T09:57:57.462Z,66.09
2022-12-08T09:58:57.457Z,66.93
2022-12-08T09:59:57.459Z,67.34
2022-12-08T10:00:57.448Z,66.43
2022-12-08T10:01:57.535Z,66.72
2022-12-08T10:02:57.446Z,67.65
2022-12-08T10:03:57.413Z,67.52
2022-12-08T10:04:57.492Z,67.57
2022-12-08T10:05:57.389Z,66.54
2022-12-08T10:06:57.391Z,67.14
2022-12-08T10:07:57.410Z,66.32
2022-12-08T10:08:57.364Z,66.97
2022-12-08T10:09:57.344Z,67.32
2022-12-08T10:10:57.350Z,68.36
2022-12-08T10:11:57.356Z,67.98
2022-12-08T10:12:57.319Z,66.80
2022-12-08T10:13:57.306Z,67.43
2022-12-08T10:14:57.301Z,66.57
2022-12-08T10:15:57.490Z,67.39
2022-12-08T10:16:57.338Z,67.12
2022-12-08T10:17:57.254Z,68.25
2022-12-08T10:18:57.270Z,66.04
2022-12-08T10:19:57.262Z,67.04
2022-12-08T10:20:57.244Z,67.56
2022-12-08T10:21:57.285Z,66.13
2022-12-08T10:22:57.240Z,66.14
2022-12-08T10:23:57.232Z,67.37
2022-12-08T10:24:57.205Z,66.26
2022-12-08T10:25:57.180Z,66.80
2022-12-08T10:26:57.203Z,67.95
2022-12-08T10:27:57.169Z,66.23
2022-12-08T10:28:57.171Z,67.56
2022-12-08T10:29:57.149Z,66.50
2022-12-08T10:30:57.239Z,68.39
2022-12-08T10:31:57.185Z,67.44
2022-12-08T10:32:57.132Z,68.14
2022-12-08T10:33:57.118Z,67.92
2022-12-08T10:34:57.098Z,67.95
2022-12-08T10:35:57.105Z,68.46
2022-12-08T10:36:57.101Z,67.70
2022-12-08T10:37:57.065Z,67.49
2022-12-08T10:38:57.066Z,67.20
2022-12-08T10:39:57.050Z,68.24
2022-12-08T10:40:57.039Z,68.88
2022-12-08T10:41:57.066Z,68.81
2022-12-08T10:42:57.028Z,66.41
2022-12-08T10:43:57.024Z,68.34
2022-12-08T10:44:57.037Z,66.40
2022-12-08T10:45:56.984Z,66.81
2022-12-08T10:46:57.041Z,66.79
2022-12-08T10:47:56.960Z,67.55
2022-12-08T10:48:56.961Z,67.53
2022-12-08T10:49:56.938Z,67.32
2022-12-08T10:50:56.935Z,66.68
2022-12-08T10:51:56.943Z,67.83
2022-12-08T10:52:56.933Z,66.73
2022-12-08T10:53:56.904Z,66.64
2022-12-08T10:54:56.914Z,67.44
2022-12-08T10:55:56.899Z,66.24
2022-12-08T10:56:56.897Z,67.44
2022-12-08T10:57:56.867Z,66.10
2022-12-08T10:58:56.866Z,67.12
2022-12-08T10:59:56.847Z,66.72
2022-12-08T11:00:56.928Z,67.65
2022-12-08T11:01:57.014Z,69.00
2022-12-08T11:02:56.866Z,67.92
2022-12-08T11:03:56.811Z,67.60
2022-12-08T11:04:56.784Z,67.83
2022-12-08T11:05:56.778Z,67.63
2022-12-08T11:06:56.787Z,67.31
2022-12-08T11:07:56.782Z,67.01
2022-12-08T11:08:56.749Z,66.79
2022-12-08T11:09:56.752Z,67.55
2022-12-08T11:10:56.740Z,67.75
2022-12-08T11:11:56.742Z,66.86
2022-12-08T11:12:56.703Z,66.92
2022-12-08T11:13:56.681Z,66.68
2022-12-08T11:14:56.674Z,67.69
2022-12-08T11:15:56.690Z,67.55
2022-12-08T11:16:56.719Z,67.24
2022-12-08T11:17:57.789Z,67.61
2022-12-08T11:18:57.634Z,67.00
2022-12-08T11:19:56.624Z,66.62
2022-12-08T11:20:56.620Z,67.11
2022-12-08T11:21:56.611Z,67.84
2022-12-08T11:22:56.624Z,67.12
2022-12-08T11:23:56.580Z,67.12
2022-12-08T11:24:56.568Z,65.75
2022-12-08T11:25:56.570Z,66.92
2022-12-08T11:26:56.579Z,66.85
2022-12-08T11:27:56.547Z,66.75
2022-12-08T11:28:56.541Z,67.02
2022-12-08T11:29:56.538Z,66.56
2022-12-08T11:30:56.513Z,67.01
2022-12-08T11:31:56.550Z,68.24
2022-12-08T11:32:56.476Z,67.42
2022-12-08T11:33:56.470Z,68.14
2022-12-08T11:34:56.463Z,67.24
2022-12-08T11:35:56.457Z,67.44
2022-12-08T11:36:56.448Z,68.51
2022-12-08T11:38:07.835Z,67.12
2022-12-08T11:38:57.422Z,67.92
2022-12-08T11:39:56.404Z,67.79
2022-12-08T11:40:56.407Z,68.30
2022-12-08T11:41:56.412Z,67.56
2022-12-08T11:42:56.370Z,67.31
2022-12-08T11:43:56.362Z,68.50
2022-12-08T11:44:57.356Z,67.65
2022-12-08T11:45:56.369Z,68.72
2022-12-08T11:46:56.348Z,67.57
2022-12-08T11:47:56.334Z,68.12
2022-12-08T11:48:58.970Z,69.63
2022-12-08T11:49:57.284Z,69.48
2022-12-08T11:50:56.288Z,68.31
2022-12-08T11:51:56.296Z,66.76
2022-12-08T11:52:56.258Z,67.63
2022-12-08T11:53:56.244Z,68.97
2022-12-08T11:54:56.251Z,68.77
2022-12-08T11:55:56.227Z,69.01
2022-12-08T11:56:56.232Z,67.59
2022-12-08T11:57:56.314Z,68.36
2022-12-08T11:58:56.197Z,68.10
2022-12-08T11:59:56.174Z,68.96
2022-12-08T12:00:56.177Z,68.27
2022-12-08T12:01:56.284Z,69.20
2022-12-08T12:02:56.181Z,69.76
2022-12-08T12:03:56.176Z,70.00
2022-12-08T12:04:56.163Z,68.93
2022-12-08T12:06:13.142Z,69.09
2022-12-08T12:06:58.142Z,68.02
2022-12-08T12:07:56.216Z,68.23
2022-12-08T12:08:56.080Z,68.64
2022-12-08T12:09:56.061Z,68.71
2022-12-08T12:10:56.067Z,69.39
2022-12-08T12:11:56.072Z,68.22
2022-12-08T12:12:56.028Z,68.77
2022-12-08T12:13:56.027Z,69.59
2022-12-08T12:14:56.008Z,68.97
2022-12-08T12:15:56.024Z,70.55
2022-12-08T12:16:56.120Z,75.22
2022-12-08T12:17:55.977Z,69.49
2022-12-08T12:18:55.964Z,70.08
2022-12-08T12:19:55.956Z,68.24
2022-12-08T12:20:55.951Z,69.18
2022-12-08T12:21:55.947Z,70.13
2022-12-08T12:22:55.930Z,71.31
2022-12-08T12:23:55.904Z,71.73
2022-12-08T12:24:55.893Z,70.43
2022-12-08T12:25:55.882Z,69.92
2022-12-08T12:26:55.877Z,70.71
2022-12-08T12:27:57.476Z,69.42
2022-12-08T12:28:56.869Z,69.86
2022-12-08T12:29:56.346Z,69.17
2022-12-08T12:30:55.888Z,70.55
2022-12-08T12:31:55.841Z,69.87
2022-12-08T12:32:55.823Z,70.18
2022-12-08T12:33:55.789Z,71.00
2022-12-08T12:34:55.777Z,70.87
2022-12-08T12:35:55.769Z,71.19
2022-12-08T12:36:55.778Z,71.16
2022-12-08T12:37:55.746Z,70.01
2022-12-08T12:38:55.755Z,69.03
2022-12-08T12:39:55.722Z,69.10
2022-12-08T12:40:55.713Z,69.54
2022-12-08T12:41:55.719Z,69.72
2022-12-08T12:42:55.690Z,70.07
2022-12-08T12:43:55.676Z,70.26
2022-12-08T12:44:55.677Z,70.87
2022-12-08T12:45:55.780Z,69.98
2022-12-08T12:46:55.641Z,70.39
2022-12-08T12:47:56.837Z,70.15
2022-12-08T12:49:28.014Z,71.13
2022-12-08T12:49:55.597Z,69.88
2022-12-08T12:50:55.595Z,70.16
2022-12-08T12:51:55.598Z,70.09
2022-12-08T12:52:55.568Z,70.18
2022-12-08T12:53:55.559Z,69.50
2022-12-08T12:54:55.539Z,68.98